createdAt,value
2022-10-24T00:09:52.552Z,965.93
2022-10-24T00:24:54.869Z,966.13
2022-10-24T00:39:56.722Z,966.1
2022-10-24T00:54:58.573Z,966.07
2022-10-24T01:10:00.442Z,966.26
2022-10-24T01:25:02.269Z,966.13
2022-10-24T01:40:04.304Z,965.93
2022-10-24T01:55:06.148Z,965.88
2022-10-24T02:10:07.997Z,966.02
2022-10-24T02:25:09.837Z,965.99
2022-10-24T02:40:11.860Z,965.95
2022-10-24T02:55:13.685Z,966.02
2022-10-24T03:10:15.510Z,966.07
2022-10-24T03:25:17.370Z,966.29
2022-10-24T03:40:19.211Z,966.05
2022-10-24T03:55:21.032Z,966.08
2022-10-24T04:10:22.896Z,966.13
2022-10-24T04:25:24.769Z,966.1
2022-10-24T04:40:26.632Z,966.06
2022-10-24T04:55:28.442Z,966.17
2022-10-24T05:10:30.291Z,966.07
2022-10-24T05:25:32.141Z,966.11
2022-10-24T05:40:33.991Z,966.17
2022-10-24T05:55:35.848Z,966.24
2022-10-24T06:10:37.710Z,966.05
2022-10-24T06:25:39.633Z,966.1
2022-10-24T06:40:41.491Z,965.92
2022-10-24T06:52:25.645Z,966.02
2022-10-24T07:07:27.496Z,966.08
2022-10-24T07:22:31.449Z,965.84
2022-10-24T07:37:34.589Z,965.63
2022-10-24T07:52:36.450Z,965.35
2022-10-24T08:07:38.350Z,965.23
2022-10-24T08:22:40.201Z,965.22
2022-10-24T08:37:42.095Z,964.86
2022-10-24T08:52:44.489Z,964.72
2022-10-24T09:07:46.750Z,964.7
2022-10-24T09:22:49.011Z,964.62
2022-10-24T09:37:51.275Z,964.46
2022-10-24T09:52:53.277Z,964.5
2022-10-24T10:07:55.104Z,964.57
2022-10-24T10:22:56.941Z,964.46
2022-10-24T10:37:58.868Z,964.47
2022-10-24T10:53:00.692Z,964.12
2022-10-24T11:08:02.597Z,964.34
2022-10-24T11:23:04.459Z,964.08
2022-10-24T11:38:06.400Z,964.04
2022-10-24T11:53:08.237Z,963.96
2022-10-24T12:08:10.092Z,963.85
2022-10-24T12:23:12.002Z,963.91
2022-10-24T12:38:13.832Z,963.7
2022-10-24T12:53:15.666Z,963.52
2022-10-24T13:08:17.519Z,963.3
2022-10-24T13:23:19.387Z,963.17
2022-10-24T13:53:29.745Z,962.95
2022-10-24T14:08:32.770Z,962.7
2022-10-24T14:23:34.608Z,962.36
2022-10-24T14:38:36.522Z,962.29
2022-10-24T14:53:38.376Z,962.07
2022-10-24T15:23:42.054Z,961.77
2022-10-24T15:38:44.382Z,961.47
2022-10-24T15:53:46.213Z,961.47
2022-10-24T16:08:48.048Z,961.46
2022-10-24T16:38:52.989Z,961.52
2022-10-24T16:53:54.819Z,961.27
2022-10-24T17:08:56.662Z,961.17
2022-10-24T17:23:58.675Z,961
2022-10-24T17:39:00.569Z,960.94
2022-10-24T17:54:02.496Z,960.91
2022-10-24T18:09:04.463Z,960.79
2022-10-24T18:24:06.298Z,960.61
2022-10-24T18:39:08.142Z,960.36
2022-10-24T18:54:10.137Z,960.41
2022-10-24T19:09:12.117Z,960.23
2022-10-24T19:24:13.978Z,960.2
2022-10-24T19:39:15.828Z,960.13
2022-10-24T19:54:17.897Z,960.05
2022-10-24T20:09:19.745Z,959.81
2022-10-24T20:24:21.612Z,959.59
2022-10-24T20:39:23.442Z,959.61
2022-10-24T20:54:25.355Z,959.29
2022-10-24T21:09:27.186Z,959.33
2022-10-24T21:24:29.034Z,959.5
2022-10-24T21:39:30.904Z,959.45
2022-10-24T21:54:32.875Z,959.44
2022-10-24T22:09:34.742Z,959.34
2022-10-24T22:24:36.613Z,959.52
2022-10-24T22:39:38.441Z,959.56
2022-10-24T22:54:40.241Z,959.56
2022-10-24T23:09:42.056Z,959.64
2022-10-24T23:24:43.919Z,959.77
2022-10-24T23:39:45.747Z,959.83
2022-10-24T23:45:04.328Z,959.82
